KORD/ORD METAR and TAF weather

Enter ICAO airport designator
Station Type Date Time Source
KORD METAR 2020/07/08 22:51 UTC NOAA

KORD 082251Z 12008KT 10SM FEW045 FEW100 SCT200 32/21 A2987 RMK AO2 LTG DSNT SE-SW RAE2156 SLP110 CB DSNT S-SW P0000 T03170211


Station Type Date Time Source
KORD Decoded METAR 2020/07/08 22:51 UTC NOAA

CHICAGO O'HARE INTERNATIONAL, IL, United States (KORD) 41-59N 087-55W 200M
Jul 08, 2020 - 06:51 PM EDT / 2020.07.08 2251 UTC
Wind: from the ESE (120 degrees) at 9 MPH (8 KT):0
Visibility: 10 mile(s):0
Sky conditions: partly cloudy
Weather: Cumulonimbus clouds, lightning observed
Precipitation last hour: A trace
Temperature: 89.1 F (31.7 C)
Heat index: 94.3 F (34.6 C):1
Dew Point: 70.0 F (21.1 C)
Relative Humidity: 53%
Pressure (altimeter): 29.87 in. Hg (1011 hPa)
ob: KORD 082251Z 12008KT 10SM FEW045 FEW100 SCT200 32/21 A2987 RMK AO2 LTG DSNT SE-SW RAE2156 SLP110 CB DSNT S-SW P0000 T03170211
cycle: 23

Station Type Date Time Source
KORD TAF 2020/07/08 21:06 UTC NOAA

TAF
AMD KORD 082104Z 0821/0924 09010KT P6SM VCTS SCT050CB BKN150
TEMPO 0821/0824 VRB20G30KT
FM090000 VRB05KT P6SM SCT050 BKN150
FM091500 19008KT P6SM SCT050 BKN150 PROB30 0920/0924 23025G35KT 3SM -TSRA BKN030CB

Example: see airport list